sensor_id;sensor_type;location;lat;lon;timestamp;temperature;humidity
42135;DHT22;28312;43.460;11.810;2022-08-03T00:02:05;21.70;56.10
42135;DHT22;28312;43.460;11.810;2022-08-03T00:06:12;21.60;56.10
42135;DHT22;28312;43.460;11.810;2022-08-03T00:10:19;21.60;56.20
42135;DHT22;28312;43.460;11.810;2022-08-03T00:14:26;21.50;56.30
42135;DHT22;28312;43.460;11.810;2022-08-03T00:18:32;21.50;56.40
42135;DHT22;28312;43.460;11.810;2022-08-03T00:22:37;21.40;56.50
42135;DHT22;28312;43.460;11.810;2022-08-03T00:26:44;21.40;56.00
42135;DHT22;28312;43.460;11.810;2022-08-03T00:30:50;21.40;56.30
42135;DHT22;28312;43.460;11.810;2022-08-03T00:34:58;21.30;56.40
42135;DHT22;28312;43.460;11.810;2022-08-03T00:39:13;21.10;56.80
42135;DHT22;28312;43.460;11.810;2022-08-03T00:43:24;21.10;57.00
42135;DHT22;28312;43.460;11.810;2022-08-03T00:47:36;21.10;57.30
42135;DHT22;28312;43.460;11.810;2022-08-03T00:51:43;21.10;57.20
42135;DHT22;28312;43.460;11.810;2022-08-03T00:55:52;21.10;57.20
42135;DHT22;28312;43.460;11.810;2022-08-03T00:59:59;21.00;57.40
42135;DHT22;28312;43.460;11.810;2022-08-03T01:04:06;21.00;57.40
42135;DHT22;28312;43.460;11.810;2022-08-03T01:08:18;20.90;57.40
42135;DHT22;28312;43.460;11.810;2022-08-03T01:12:38;20.90;57.60
42135;DHT22;28312;43.460;11.810;2022-08-03T01:21:00;20.90;57.80
42135;DHT22;28312;43.460;11.810;2022-08-03T01:29:45;20.80;57.90
42135;DHT22;28312;43.460;11.810;2022-08-03T01:33:59;20.80;58.00
42135;DHT22;28312;43.460;11.810;2022-08-03T01:38:26;20.70;57.90
42135;DHT22;28312;43.460;11.810;2022-08-03T01:42:36;20.70;58.20
42135;DHT22;28312;43.460;11.810;2022-08-03T01:46:43;20.60;58.30
42135;DHT22;28312;43.460;11.810;2022-08-03T01:50:55;20.60;58.20
42135;DHT22;28312;43.460;11.810;2022-08-03T01:55:09;20.60;58.20
42135;DHT22;28312;43.460;11.810;2022-08-03T01:59:20;20.60;58.20
42135;DHT22;28312;43.460;11.810;2022-08-03T02:03:28;20.60;58.20
42135;DHT22;28312;43.460;11.810;2022-08-03T02:07:35;20.40;58.30
42135;DHT22;28312;43.460;11.810;2022-08-03T02:11:42;20.30;58.50
42135;DHT22;28312;43.460;11.810;2022-08-03T02:15:49;20.30;58.60
42135;DHT22;28312;43.460;11.810;2022-08-03T02:19:59;20.20;58.80
42135;DHT22;28312;43.460;11.810;2022-08-03T02:24:06;20.20;58.90
42135;DHT22;28312;43.460;11.810;2022-08-03T02:28:19;20.10;59.00
42135;DHT22;28312;43.460;11.810;2022-08-03T02:32:33;20.10;59.20
42135;DHT22;28312;43.460;11.810;2022-08-03T02:36:45;20.00;59.20
42135;DHT22;28312;43.460;11.810;2022-08-03T02:40:55;20.00;59.20
42135;DHT22;28312;43.460;11.810;2022-08-03T02:45:06;19.90;59.30
42135;DHT22;28312;43.460;11.810;2022-08-03T02:49:20;19.90;59.40
42135;DHT22;28312;43.460;11.810;2022-08-03T02:53:47;19.90;59.60
42135;DHT22;28312;43.460;11.810;2022-08-03T02:57:56;19.80;59.60
42135;DHT22;28312;43.460;11.810;2022-08-03T03:02:05;19.80;59.70
42135;DHT22;28312;43.460;11.810;2022-08-03T03:06:15;19.80;59.70
42135;DHT22;28312;43.460;11.810;2022-08-03T03:10:24;19.80;59.60
42135;DHT22;28312;43.460;11.810;2022-08-03T03:14:32;19.80;59.60
42135;DHT22;28312;43.460;11.810;2022-08-03T03:18:39;19.70;59.60
42135;DHT22;28312;43.460;11.810;2022-08-03T03:22:49;19.60;59.80
42135;DHT22;28312;43.460;11.810;2022-08-03T03:26:56;19.60;59.90
42135;DHT22;28312;43.460;11.810;2022-08-03T03:31:05;19.60;60.00
42135;DHT22;28312;43.460;11.810;2022-08-03T03:35:12;19.60;60.00
42135;DHT22;28312;43.460;11.810;2022-08-03T03:39:26;19.60;60.00
42135;DHT22;28312;43.460;11.810;2022-08-03T03:43:33;19.50;60.00
42135;DHT22;28312;43.460;11.810;2022-08-03T03:47:40;19.40;60.20
42135;DHT22;28312;43.460;11.810;2022-08-03T03:51:47;19.40;60.20
42135;DHT22;28312;43.460;11.810;2022-08-03T03:55:57;19.40;60.40
42135;DHT22;28312;43.460;11.810;2022-08-03T04:00:12;19.30;60.40
42135;DHT22;28312;43.460;11.810;2022-08-03T04:04:18;19.30;60.40
42135;DHT22;28312;43.460;11.810;2022-08-03T04:08:43;19.30;60.40
42135;DHT22;28312;43.460;11.810;2022-08-03T04:13:09;19.20;60.50
42135;DHT22;28312;43.460;11.810;2022-08-03T04:17:17;19.20;60.70
42135;DHT22;28312;43.460;11.810;2022-08-03T04:21:23;19.30;60.80
42135;DHT22;28312;43.460;11.810;2022-08-03T04:25:30;19.20;60.80
42135;DHT22;28312;43.460;11.810;2022-08-03T04:29:37;19.20;60.90
42135;DHT22;28312;43.460;11.810;2022-08-03T04:33:51;19.20;61.00
42135;DHT22;28312;43.460;11.810;2022-08-03T04:37:58;19.30;60.80
42135;DHT22;28312;43.460;11.810;2022-08-03T04:42:06;19.20;60.80
42135;DHT22;28312;43.460;11.810;2022-08-03T04:46:13;19.30;60.90
42135;DHT22;28312;43.460;11.810;2022-08-03T04:50:18;19.40;60.90
42135;DHT22;28312;43.460;11.810;2022-08-03T04:54:41;19.40;61.10
42135;DHT22;28312;43.460;11.810;2022-08-03T04:58:53;19.40;61.20
42135;DHT22;28312;43.460;11.810;2022-08-03T05:03:02;19.50;61.20
42135;DHT22;28312;43.460;11.810;2022-08-03T05:07:25;19.50;61.40
42135;DHT22;28312;43.460;11.810;2022-08-03T05:11:38;19.70;61.50
42135;DHT22;28312;43.460;11.810;2022-08-03T05:15:42;19.90;61.60
42135;DHT22;28312;43.460;11.810;2022-08-03T05:19:46;20.10;61.80
42135;DHT22;28312;43.460;11.810;2022-08-03T05:23:50;20.30;61.80
42135;DHT22;28312;43.460;11.810;2022-08-03T05:27:54;20.50;61.90
42135;DHT22;28312;43.460;11.810;2022-08-03T05:31:57;20.70;61.90
42135;DHT22;28312;43.460;11.810;2022-08-03T05:36:04;21.10;62.10
42135;DHT22;28312;43.460;11.810;2022-08-03T05:40:09;21.40;62.00
42135;DHT22;28312;43.460;11.810;2022-08-03T05:44:13;21.70;61.90
42135;DHT22;28312;43.460;11.810;2022-08-03T05:48:16;22.10;61.60
42135;DHT22;28312;43.460;11.810;2022-08-03T05:52:20;22.40;61.40
42135;DHT22;28312;43.460;11.810;2022-08-03T05:56:24;22.80;61.20
42135;DHT22;28312;43.460;11.810;2022-08-03T06:00:28;23.20;61.00
42135;DHT22;28312;43.460;11.810;2022-08-03T06:04:34;23.70;61.60
42135;DHT22;28312;43.460;11.810;2022-08-03T06:08:38;24.10;61.30
42135;DHT22;28312;43.460;11.810;2022-08-03T06:12:42;24.60;61.10
42135;DHT22;28312;43.460;11.810;2022-08-03T06:16:47;25.10;61.00
42135;DHT22;28312;43.460;11.810;2022-08-03T06:20:51;25.60;61.10
42135;DHT22;28312;43.460;11.810;2022-08-03T06:24:57;26.10;60.60
42135;DHT22;28312;43.460;11.810;2022-08-03T06:29:07;26.50;60.10
42135;DHT22;28312;43.460;11.810;2022-08-03T06:33:11;26.90;59.80
42135;DHT22;28312;43.460;11.810;2022-08-03T06:37:15;27.10;59.80
42135;DHT22;28312;43.460;11.810;2022-08-03T06:41:19;27.30;59.70
42135;DHT22;28312;43.460;11.810;2022-08-03T06:45:23;27.40;59.80
42135;DHT22;28312;43.460;11.810;2022-08-03T06:49:27;27.60;59.60
42135;DHT22;28312;43.460;11.810;2022-08-03T06:53:31;27.80;59.60
42135;DHT22;28312;43.460;11.810;2022-08-03T06:57:35;28.10;59.20
42135;DHT22;28312;43.460;11.810;2022-08-03T07:01:39;28.30;58.80
42135;DHT22;28312;43.460;11.810;2022-08-03T07:05:43;28.60;58.40
42135;DHT22;28312;43.460;11.810;2022-08-03T07:09:50;28.80;58.20
42135;DHT22;28312;43.460;11.810;2022-08-03T07:14:06;28.90;57.90
42135;DHT22;28312;43.460;11.810;2022-08-03T07:18:20;29.10;57.70
42135;DHT22;28312;43.460;11.810;2022-08-03T07:22:32;29.10;57.40
42135;DHT22;28312;43.460;11.810;2022-08-03T07:26:36;29.20;57.10
42135;DHT22;28312;43.460;11.810;2022-08-03T07:30:39;29.40;56.80
42135;DHT22;28312;43.460;11.810;2022-08-03T07:34:45;29.60;56.60
42135;DHT22;28312;43.460;11.810;2022-08-03T07:38:49;29.80;56.40
42135;DHT22;28312;43.460;11.810;2022-08-03T07:42:54;30.00;56.10
42135;DHT22;28312;43.460;11.810;2022-08-03T07:46:57;30.10;55.80
42135;DHT22;28312;43.460;11.810;2022-08-03T07:51:05;30.40;55.60
42135;DHT22;28312;43.460;11.810;2022-08-03T07:55:09;30.60;55.10
42135;DHT22;28312;43.460;11.810;2022-08-03T07:59:13;30.80;54.80
42135;DHT22;28312;43.460;11.810;2022-08-03T08:03:20;31.10;54.40
42135;DHT22;28312;43.460;11.810;2022-08-03T08:07:24;31.30;54.10
42135;DHT22;28312;43.460;11.810;2022-08-03T08:11:28;31.40;53.50
42135;DHT22;28312;43.460;11.810;2022-08-03T08:15:32;31.60;53.00
42135;DHT22;28312;43.460;11.810;2022-08-03T08:19:36;31.80;52.50
42135;DHT22;28312;43.460;11.810;2022-08-03T08:23:45;32.00;51.80
42135;DHT22;28312;43.460;11.810;2022-08-03T08:28:00;32.10;51.60
42135;DHT22;28312;43.460;11.810;2022-08-03T08:32:25;32.30;51.00
42135;DHT22;28312;43.460;11.810;2022-08-03T08:36:28;32.40;50.80
42135;DHT22;28312;43.460;11.810;2022-08-03T08:40:35;32.60;50.20
42135;DHT22;28312;43.460;11.810;2022-08-03T08:44:39;32.80;50.10
42135;DHT22;28312;43.460;11.810;2022-08-03T08:48:43;32.90;49.30
42135;DHT22;28312;43.460;11.810;2022-08-03T08:52:49;33.10;48.90
42135;DHT22;28312;43.460;11.810;2022-08-03T08:56:56;33.40;48.40
42135;DHT22;28312;43.460;11.810;2022-08-03T09:01:04;33.60;48.00
42135;DHT22;28312;43.460;11.810;2022-08-03T09:05:15;33.70;47.80
42135;DHT22;28312;43.460;11.810;2022-08-03T09:09:20;33.80;47.50
42135;DHT22;28312;43.460;11.810;2022-08-03T09:13:43;34.10;47.20
42135;DHT22;28312;43.460;11.810;2022-08-03T09:17:57;34.20;47.00
42135;DHT22;28312;43.460;11.810;2022-08-03T09:22:15;34.40;46.40
42135;DHT22;28312;43.460;11.810;2022-08-03T09:26:27;34.60;45.80
42135;DHT22;28312;43.460;11.810;2022-08-03T09:30:31;34.70;45.60
42135;DHT22;28312;43.460;11.810;2022-08-03T09:34:41;34.70;44.20
42135;DHT22;28312;43.460;11.810;2022-08-03T09:39:00;34.90;44.30
42135;DHT22;28312;43.460;11.810;2022-08-03T09:43:07;35.00;44.20
42135;DHT22;28312;43.460;11.810;2022-08-03T09:47:12;35.00;43.30
42135;DHT22;28312;43.460;11.810;2022-08-03T09:51:23;35.00;42.70
42135;DHT22;28312;43.460;11.810;2022-08-03T09:56:01;35.10;42.70
42135;DHT22;28312;43.460;11.810;2022-08-03T10:00:25;35.10;41.80
42135;DHT22;28312;43.460;11.810;2022-08-03T10:04:30;35.10;41.60
42135;DHT22;28312;43.460;11.810;2022-08-03T10:08:38;35.10;40.70
42135;DHT22;28312;43.460;11.810;2022-08-03T10:12:43;35.30;40.80
42135;DHT22;28312;43.460;11.810;2022-08-03T10:16:48;35.50;40.90
42135;DHT22;28312;43.460;11.810;2022-08-03T10:21:04;35.60;40.50
42135;DHT22;28312;43.460;11.810;2022-08-03T10:25:12;35.70;40.70
42135;DHT22;28312;43.460;11.810;2022-08-03T10:29:21;35.80;40.50
42135;DHT22;28312;43.460;11.810;2022-08-03T10:33:28;36.00;40.00
42135;DHT22;28312;43.460;11.810;2022-08-03T10:37:58;36.20;39.70
42135;DHT22;28312;43.460;11.810;2022-08-03T10:42:02;36.30;39.60
42135;DHT22;28312;43.460;11.810;2022-08-03T10:46:07;36.40;39.30
42135;DHT22;28312;43.460;11.810;2022-08-03T10:50:12;36.60;39.50
42135;DHT22;28312;43.460;11.810;2022-08-03T10:58:45;37.10;39.30
42135;DHT22;28312;43.460;11.810;2022-08-03T11:07:22;37.70;38.90
42135;DHT22;28312;43.460;11.810;2022-08-03T11:11:26;38.00;38.90
42135;DHT22;28312;43.460;11.810;2022-08-03T11:15:32;38.00;38.30
42135;DHT22;28312;43.460;11.810;2022-08-03T11:19:48;38.00;37.80
42135;DHT22;28312;43.460;11.810;2022-08-03T11:23:59;37.90;38.10
42135;DHT22;28312;43.460;11.810;2022-08-03T11:28:27;37.90;37.90
42135;DHT22;28312;43.460;11.810;2022-08-03T11:37:22;38.10;37.80
42135;DHT22;28312;43.460;11.810;2022-08-03T11:41:33;38.20;37.70
42135;DHT22;28312;43.460;11.810;2022-08-03T11:46:04;38.20;37.80
42135;DHT22;28312;43.460;11.810;2022-08-03T11:50:08;38.10;37.80
42135;DHT22;28312;43.460;11.810;2022-08-03T11:54:12;38.10;38.00
42135;DHT22;28312;43.460;11.810;2022-08-03T11:58:20;38.10;38.30
42135;DHT22;28312;43.460;11.810;2022-08-03T12:02:57;38.30;38.40
42135;DHT22;28312;43.460;11.810;2022-08-03T12:07:01;38.40;38.30
42135;DHT22;28312;43.460;11.810;2022-08-03T12:11:08;38.30;38.30
42135;DHT22;28312;43.460;11.810;2022-08-03T12:15:12;38.50;38.60
42135;DHT22;28312;43.460;11.810;2022-08-03T12:19:16;38.50;38.30
42135;DHT22;28312;43.460;11.810;2022-08-03T12:23:20;38.50;38.30
42135;DHT22;28312;43.460;11.810;2022-08-03T12:27:24;38.60;38.30
42135;DHT22;28312;43.460;11.810;2022-08-03T12:31:30;38.50;38.00
42135;DHT22;28312;43.460;11.810;2022-08-03T12:35:34;38.40;38.00
42135;DHT22;28312;43.460;11.810;2022-08-03T12:39:38;38.50;38.10
42135;DHT22;28312;43.460;11.810;2022-08-03T12:44:05;38.50;38.20
42135;DHT22;28312;43.460;11.810;2022-08-03T12:48:09;38.60;37.40
42135;DHT22;28312;43.460;11.810;2022-08-03T12:52:15;38.60;36.90
42135;DHT22;28312;43.460;11.810;2022-08-03T12:56:20;38.60;37.00
42135;DHT22;28312;43.460;11.810;2022-08-03T13:00:28;38.50;37.30
42135;DHT22;28312;43.460;11.810;2022-08-03T13:04:35;38.60;37.30
42135;DHT22;28312;43.460;11.810;2022-08-03T13:08:39;38.80;37.20
42135;DHT22;28312;43.460;11.810;2022-08-03T13:12:49;38.80;37.10
42135;DHT22;28312;43.460;11.810;2022-08-03T13:16:53;38.90;37.00
42135;DHT22;28312;43.460;11.810;2022-08-03T13:20:59;39.00;37.30
42135;DHT22;28312;43.460;11.810;2022-08-03T13:25:05;39.30;37.60
42135;DHT22;28312;43.460;11.810;2022-08-03T13:29:10;39.50;37.20
42135;DHT22;28312;43.460;11.810;2022-08-03T13:33:14;39.50;37.50
42135;DHT22;28312;43.460;11.810;2022-08-03T13:37:19;39.50;37.60
42135;DHT22;28312;43.460;11.810;2022-08-03T13:41:24;39.50;37.00
42135;DHT22;28312;43.460;11.810;2022-08-03T13:45:33;39.40;36.80
42135;DHT22;28312;43.460;11.810;2022-08-03T13:49:38;39.20;36.60
42135;DHT22;28312;43.460;11.810;2022-08-03T13:53:42;39.10;36.70
42135;DHT22;28312;43.460;11.810;2022-08-03T13:57:46;39.00;36.40
42135;DHT22;28312;43.460;11.810;2022-08-03T14:02:10;38.90;36.60
42135;DHT22;28312;43.460;11.810;2022-08-03T14:06:14;39.00;36.70
42135;DHT22;28312;43.460;11.810;2022-08-03T14:10:19;39.10;36.90
42135;DHT22;28312;43.460;11.810;2022-08-03T14:14:27;39.10;37.20
42135;DHT22;28312;43.460;11.810;2022-08-03T14:18:31;39.20;37.20
42135;DHT22;28312;43.460;11.810;2022-08-03T14:22:36;39.30;37.00
42135;DHT22;28312;43.460;11.810;2022-08-03T14:26:40;39.40;37.30
42135;DHT22;28312;43.460;11.810;2022-08-03T14:30:45;39.50;37.00
42135;DHT22;28312;43.460;11.810;2022-08-03T14:34:50;39.50;37.30
42135;DHT22;28312;43.460;11.810;2022-08-03T14:38:54;39.30;37.00
42135;DHT22;28312;43.460;11.810;2022-08-03T14:43:03;39.40;37.00
42135;DHT22;28312;43.460;11.810;2022-08-03T14:47:06;39.40;37.50
42135;DHT22;28312;43.460;11.810;2022-08-03T14:51:10;39.70;37.50
42135;DHT22;28312;43.460;11.810;2022-08-03T14:55:17;39.80;37.50
42135;DHT22;28312;43.460;11.810;2022-08-03T14:59:21;39.80;37.50
42135;DHT22;28312;43.460;11.810;2022-08-03T15:03:25;39.80;37.30
42135;DHT22;28312;43.460;11.810;2022-08-03T15:07:29;39.80;37.40
42135;DHT22;28312;43.460;11.810;2022-08-03T15:11:32;39.70;37.90
42135;DHT22;28312;43.460;11.810;2022-08-03T15:15:36;39.50;37.70
42135;DHT22;28312;43.460;11.810;2022-08-03T15:19:40;39.00;36.80
42135;DHT22;28312;43.460;11.810;2022-08-03T15:24:04;38.50;36.80
42135;DHT22;28312;43.460;11.810;2022-08-03T15:28:08;38.00;36.60
42135;DHT22;28312;43.460;11.810;2022-08-03T15:32:11;37.50;36.80
42135;DHT22;28312;43.460;11.810;2022-08-03T15:36:17;37.20;37.00
42135;DHT22;28312;43.460;11.810;2022-08-03T15:40:21;37.00;37.10
42135;DHT22;28312;43.460;11.810;2022-08-03T15:44:25;36.90;36.90
42135;DHT22;28312;43.460;11.810;2022-08-03T15:48:28;36.60;36.90
42135;DHT22;28312;43.460;11.810;2022-08-03T15:52:32;36.50;37.20
42135;DHT22;28312;43.460;11.810;2022-08-03T15:56:38;36.70;37.70
42135;DHT22;28312;43.460;11.810;2022-08-03T16:00:44;37.00;37.60
42135;DHT22;28312;43.460;11.810;2022-08-03T16:04:48;37.00;36.90
42135;DHT22;28312;43.460;11.810;2022-08-03T16:08:52;37.30;36.50
42135;DHT22;28312;43.460;11.810;2022-08-03T16:12:56;37.40;36.20
42135;DHT22;28312;43.460;11.810;2022-08-03T16:17:03;37.50;36.10
42135;DHT22;28312;43.460;11.810;2022-08-03T16:21:07;37.60;35.70
42135;DHT22;28312;43.460;11.810;2022-08-03T16:25:18;37.70;35.60
42135;DHT22;28312;43.460;11.810;2022-08-03T16:29:22;37.60;35.40
42135;DHT22;28312;43.460;11.810;2022-08-03T16:33:26;37.50;35.20
42135;DHT22;28312;43.460;11.810;2022-08-03T16:37:30;37.30;35.00
42135;DHT22;28312;43.460;11.810;2022-08-03T16:41:41;37.10;34.80
42135;DHT22;28312;43.460;11.810;2022-08-03T16:46:02;36.90;35.00
42135;DHT22;28312;43.460;11.810;2022-08-03T16:50:09;36.70;34.70
42135;DHT22;28312;43.460;11.810;2022-08-03T16:54:21;36.60;34.70
42135;DHT22;28312;43.460;11.810;2022-08-03T16:58:29;36.30;34.80
42135;DHT22;28312;43.460;11.810;2022-08-03T17:02:46;36.10;34.80
42135;DHT22;28312;43.460;11.810;2022-08-03T17:06:53;35.90;35.00
42135;DHT22;28312;43.460;11.810;2022-08-03T17:10:57;35.70;35.20
42135;DHT22;28312;43.460;11.810;2022-08-03T17:15:03;35.60;35.20
42135;DHT22;28312;43.460;11.810;2022-08-03T17:19:12;35.50;35.30
42135;DHT22;28312;43.460;11.810;2022-08-03T17:27:37;35.00;35.50
42135;DHT22;28312;43.460;11.810;2022-08-03T17:32:03;34.70;35.60
42135;DHT22;28312;43.460;11.810;2022-08-03T17:36:14;34.40;35.80
42135;DHT22;28312;43.460;11.810;2022-08-03T17:40:23;34.20;36.00
42135;DHT22;28312;43.460;11.810;2022-08-03T17:44:28;34.00;36.10
42135;DHT22;28312;43.460;11.810;2022-08-03T17:48:48;33.80;36.20
42135;DHT22;28312;43.460;11.810;2022-08-03T17:53:04;33.50;36.40
42135;DHT22;28312;43.460;11.810;2022-08-03T18:02:08;33.10;36.70
42135;DHT22;28312;43.460;11.810;2022-08-03T18:06:38;32.90;36.70
42135;DHT22;28312;43.460;11.810;2022-08-03T18:11:08;32.70;36.90
42135;DHT22;28312;43.460;11.810;2022-08-03T18:15:24;32.60;36.90
42135;DHT22;28312;43.460;11.810;2022-08-03T18:19:36;32.30;37.00
42135;DHT22;28312;43.460;11.810;2022-08-03T18:23:59;32.10;37.10
42135;DHT22;28312;43.460;11.810;2022-08-03T18:28:05;32.00;37.20
42135;DHT22;28312;43.460;11.810;2022-08-03T18:32:10;31.90;37.30
42135;DHT22;28312;43.460;11.810;2022-08-03T18:36:28;31.70;37.30
42135;DHT22;28312;43.460;11.810;2022-08-03T18:40:35;31.50;37.40
42135;DHT22;28312;43.460;11.810;2022-08-03T18:44:50;31.30;37.50
42135;DHT22;28312;43.460;11.810;2022-08-03T18:49:11;31.20;37.60
42135;DHT22;28312;43.460;11.810;2022-08-03T19:02:45;30.70;37.80
42135;DHT22;28312;43.460;11.810;2022-08-03T19:07:01;30.50;37.90
42135;DHT22;28312;43.460;11.810;2022-08-03T19:16:03;30.20;38.20
42135;DHT22;28312;43.460;11.810;2022-08-03T19:20:28;30.00;38.30
42135;DHT22;28312;43.460;11.810;2022-08-03T19:24:33;29.80;38.40
42135;DHT22;28312;43.460;11.810;2022-08-03T19:28:40;29.70;38.50
42135;DHT22;28312;43.460;11.810;2022-08-03T19:32:44;29.60;38.60
42135;DHT22;28312;43.460;11.810;2022-08-03T19:36:51;29.50;38.70
42135;DHT22;28312;43.460;11.810;2022-08-03T19:40:57;29.30;38.80
42135;DHT22;28312;43.460;11.810;2022-08-03T19:45:06;29.10;38.90
42135;DHT22;28312;43.460;11.810;2022-08-03T19:49:19;28.90;39.00
42135;DHT22;28312;43.460;11.810;2022-08-03T19:53:23;28.70;39.10
42135;DHT22;28312;43.460;11.810;2022-08-03T19:57:41;28.60;39.20
42135;DHT22;28312;43.460;11.810;2022-08-03T20:01:47;28.20;39.40
42135;DHT22;28312;43.460;11.810;2022-08-03T20:05:53;28.10;39.50
42135;DHT22;28312;43.460;11.810;2022-08-03T20:09:58;27.80;39.60
42135;DHT22;28312;43.460;11.810;2022-08-03T20:14:04;27.50;39.80
42135;DHT22;28312;43.460;11.810;2022-08-03T20:18:09;27.20;40.00
42135;DHT22;28312;43.460;11.810;2022-08-03T20:22:26;27.00;40.20
42135;DHT22;28312;43.460;11.810;2022-08-03T20:26:32;26.70;40.20
42135;DHT22;28312;43.460;11.810;2022-08-03T20:30:37;26.50;40.30
42135;DHT22;28312;43.460;11.810;2022-08-03T20:34:44;26.10;40.70
42135;DHT22;28312;43.460;11.810;2022-08-03T20:38:51;25.80;40.90
42135;DHT22;28312;43.460;11.810;2022-08-03T20:43:00;25.70;40.90
42135;DHT22;28312;43.460;11.810;2022-08-03T20:47:04;25.40;41.10
42135;DHT22;28312;43.460;11.810;2022-08-03T20:51:12;25.10;41.40
42135;DHT22;28312;43.460;11.810;2022-08-03T20:55:36;24.80;41.70
42135;DHT22;28312;43.460;11.810;2022-08-03T21:00:03;24.70;41.70
42135;DHT22;28312;43.460;11.810;2022-08-03T21:04:13;24.60;41.90
42135;DHT22;28312;43.460;11.810;2022-08-03T21:08:25;24.40;42.00
42135;DHT22;28312;43.460;11.810;2022-08-03T21:13:02;24.20;42.10
42135;DHT22;28312;43.460;11.810;2022-08-03T21:17:21;24.10;42.20
42135;DHT22;28312;43.460;11.810;2022-08-03T21:21:43;24.10;42.40
42135;DHT22;28312;43.460;11.810;2022-08-03T21:25:50;23.80;42.60
42135;DHT22;28312;43.460;11.810;2022-08-03T21:29:55;23.60;42.80
42135;DHT22;28312;43.460;11.810;2022-08-03T21:34:02;23.50;42.90
42135;DHT22;28312;43.460;11.810;2022-08-03T21:38:06;23.40;43.00
42135;DHT22;28312;43.460;11.810;2022-08-03T21:42:31;23.20;43.00
42135;DHT22;28312;43.460;11.810;2022-08-03T21:46:40;23.10;43.20
42135;DHT22;28312;43.460;11.810;2022-08-03T21:50:44;22.90;43.30
42135;DHT22;28312;43.460;11.810;2022-08-03T21:54:50;22.70;43.60
42135;DHT22;28312;43.460;11.810;2022-08-03T21:58:58;22.60;43.70
42135;DHT22;28312;43.460;11.810;2022-08-03T22:03:04;22.50;43.40
42135;DHT22;28312;43.460;11.810;2022-08-03T22:07:24;22.30;43.70
42135;DHT22;28312;43.460;11.810;2022-08-03T22:11:28;22.10;43.90
42135;DHT22;28312;43.460;11.810;2022-08-03T22:15:32;21.90;44.00
42135;DHT22;28312;43.460;11.810;2022-08-03T22:19:36;21.70;44.20
42135;DHT22;28312;43.460;11.810;2022-08-03T22:23:45;21.60;44.30
42135;DHT22;28312;43.460;11.810;2022-08-03T22:27:51;21.40;44.50
42135;DHT22;28312;43.460;11.810;2022-08-03T22:31:56;21.30;44.70
42135;DHT22;28312;43.460;11.810;2022-08-03T22:36:03;21.20;44.70
42135;DHT22;28312;43.460;11.810;2022-08-03T22:40:12;21.00;45.00
42135;DHT22;28312;43.460;11.810;2022-08-03T22:44:19;20.90;45.00
42135;DHT22;28312;43.460;11.810;2022-08-03T22:48:25;20.70;45.30
42135;DHT22;28312;43.460;11.810;2022-08-03T22:52:35;20.50;45.50
42135;DHT22;28312;43.460;11.810;2022-08-03T22:56:39;20.40;45.50
42135;DHT22;28312;43.460;11.810;2022-08-03T23:00:50;20.20;45.60
42135;DHT22;28312;43.460;11.810;2022-08-03T23:04:57;20.20;45.80
42135;DHT22;28312;43.460;11.810;2022-08-03T23:09:08;20.10;45.90
42135;DHT22;28312;43.460;11.810;2022-08-03T23:13:15;20.00;46.10
42135;DHT22;28312;43.460;11.810;2022-08-03T23:17:21;19.90;46.10
42135;DHT22;28312;43.460;11.810;2022-08-03T23:21:26;19.70;46.20
42135;DHT22;28312;43.460;11.810;2022-08-03T23:25:50;19.60;46.00
42135;DHT22;28312;43.460;11.810;2022-08-03T23:29:55;19.60;46.40
42135;DHT22;28312;43.460;11.810;2022-08-03T23:34:00;19.40;46.70
42135;DHT22;28312;43.460;11.810;2022-08-03T23:38:33;19.40;46.70
42135;DHT22;28312;43.460;11.810;2022-08-03T23:42:38;19.30;46.80
42135;DHT22;28312;43.460;11.810;2022-08-03T23:46:43;19.30;47.00
42135;DHT22;28312;43.460;11.810;2022-08-03T23:50:51;19.20;47.00
